Astoria Regional Airport Astoria US
ICAO: KAST
IATA: AST
Category: Medium
Scheduled Services: No

Elevation: 15 ft
TransAlt. 18000 ft.

Airport Communications:
ASOS:135.375
SEATTLE CNTR:124.2
AIR CG:38.18
MC MINNVILLE RDO:122.3
CTAF/UNICOM:122.8

KAST Zoom In..

If you have problems with the map follow the link
https://www.worldairports.se/pages/airport.php?
ICAO=KAST

Runways:

(A) RW 08 length 5795 ft width 100 ft
---- / hdg 77

(B) RW 13 length 4996 ft width 100 ft
---- / hdg 135

(C) RW 26 length 5795 ft width 100 ft
ILS 109.50 / hdg 257

(D) RW 31 length 4996 ft width 100 ft
---- / hdg 315

Location; KAST
Day. 08 / Time. 04.23 Zulu
* Altimeter: 29.79
* Temperature: 09° c. 48.2°f.
* Wind from: 040° Speed 04 kn.
Dewpoint: 08° c.
Visibility: 10 Statute Miles.
Clouds: Scattered 300 ft.
Clouds: Overcast 2200 ft.

KAST 080423Z AUTO 04004KT 10SM SCT003 OVC022 09/08 A2979 RMK AO2 T00890083 $


Wind From 040°
Speed 04 kn.

 
 
jpsmedia worldairports.se 2019   terms of use